sensor_id;sensor_type;location;lat;lon;timestamp;temperature;humidity
27540;DHT22;15906;52.046;4.724;2022-09-09T00:00:20;15.90;99.90
27540;DHT22;15906;52.046;4.724;2022-09-09T00:05:45;15.80;99.90
27540;DHT22;15906;52.046;4.724;2022-09-09T00:08:20;15.80;99.90
27540;DHT22;15906;52.046;4.724;2022-09-09T00:10:53;15.80;99.90
27540;DHT22;15906;52.046;4.724;2022-09-09T00:13:28;15.70;99.90
27540;DHT22;15906;52.046;4.724;2022-09-09T00:18:35;15.70;99.90
27540;DHT22;15906;52.046;4.724;2022-09-09T00:21:15;15.70;99.90
27540;DHT22;15906;52.046;4.724;2022-09-09T00:23:53;15.80;99.90
27540;DHT22;15906;52.046;4.724;2022-09-09T00:26:28;15.70;99.90
27540;DHT22;15906;52.046;4.724;2022-09-09T00:29:00;15.70;99.90
27540;DHT22;15906;52.046;4.724;2022-09-09T00:31:30;15.70;99.90
27540;DHT22;15906;52.046;4.724;2022-09-09T00:34:12;15.70;99.90
27540;DHT22;15906;52.046;4.724;2022-09-09T00:36:39;15.70;99.90
27540;DHT22;15906;52.046;4.724;2022-09-09T00:39:05;15.70;99.90
27540;DHT22;15906;52.046;4.724;2022-09-09T00:41:43;15.60;99.90
27540;DHT22;15906;52.046;4.724;2022-09-09T00:44:34;15.50;99.90
27540;DHT22;15906;52.046;4.724;2022-09-09T00:47:18;15.60;99.90
27540;DHT22;15906;52.046;4.724;2022-09-09T00:50:06;15.50;99.90
27540;DHT22;15906;52.046;4.724;2022-09-09T00:55:21;15.40;99.90
27540;DHT22;15906;52.046;4.724;2022-09-09T00:57:52;15.40;99.90
27540;DHT22;15906;52.046;4.724;2022-09-09T01:08:01;15.40;99.90
27540;DHT22;15906;52.046;4.724;2022-09-09T01:10:52;15.50;99.90
27540;DHT22;15906;52.046;4.724;2022-09-09T01:13:28;15.50;99.90
27540;DHT22;15906;52.046;4.724;2022-09-09T01:16:00;15.50;99.90
27540;DHT22;15906;52.046;4.724;2022-09-09T01:18:31;15.40;99.90
27540;DHT22;15906;52.046;4.724;2022-09-09T01:21:18;15.40;99.90
27540;DHT22;15906;52.046;4.724;2022-09-09T01:24:14;15.40;99.90
27540;DHT22;15906;52.046;4.724;2022-09-09T01:26:42;15.40;99.90
27540;DHT22;15906;52.046;4.724;2022-09-09T01:29:11;15.30;99.90
27540;DHT22;15906;52.046;4.724;2022-09-09T01:31:41;15.30;99.90
27540;DHT22;15906;52.046;4.724;2022-09-09T01:34:11;15.30;99.90
27540;DHT22;15906;52.046;4.724;2022-09-09T01:36:55;15.40;99.90
27540;DHT22;15906;52.046;4.724;2022-09-09T01:39:22;15.40;99.90
27540;DHT22;15906;52.046;4.724;2022-09-09T01:41:48;15.40;99.90
27540;DHT22;15906;52.046;4.724;2022-09-09T01:44:14;15.30;99.90
27540;DHT22;15906;52.046;4.724;2022-09-09T01:46:40;15.20;99.90
27540;DHT22;15906;52.046;4.724;2022-09-09T01:49:08;15.30;99.90
27540;DHT22;15906;52.046;4.724;2022-09-09T01:51:35;15.30;99.90
27540;DHT22;15906;52.046;4.724;2022-09-09T01:54:01;15.30;99.90
27540;DHT22;15906;52.046;4.724;2022-09-09T02:07:10;15.30;99.90
27540;DHT22;15906;52.046;4.724;2022-09-09T02:09:38;15.40;99.90
27540;DHT22;15906;52.046;4.724;2022-09-09T02:12:10;15.40;99.90
27540;DHT22;15906;52.046;4.724;2022-09-09T02:14:41;15.40;99.90
27540;DHT22;15906;52.046;4.724;2022-09-09T02:17:10;15.30;99.90
27540;DHT22;15906;52.046;4.724;2022-09-09T02:19:47;15.30;99.90
27540;DHT22;15906;52.046;4.724;2022-09-09T02:22:17;15.30;99.90
27540;DHT22;15906;52.046;4.724;2022-09-09T02:24:44;15.30;99.90
27540;DHT22;15906;52.046;4.724;2022-09-09T02:27:12;15.30;99.90
27540;DHT22;15906;52.046;4.724;2022-09-09T02:29:41;15.40;99.90
27540;DHT22;15906;52.046;4.724;2022-09-09T02:32:11;15.30;99.90
27540;DHT22;15906;52.046;4.724;2022-09-09T02:34:43;15.30;99.90
27540;DHT22;15906;52.046;4.724;2022-09-09T02:37:10;15.30;99.90
27540;DHT22;15906;52.046;4.724;2022-09-09T02:39:36;15.30;99.90
27540;DHT22;15906;52.046;4.724;2022-09-09T02:42:03;15.20;99.90
27540;DHT22;15906;52.046;4.724;2022-09-09T02:44:29;15.20;99.90
27540;DHT22;15906;52.046;4.724;2022-09-09T02:52:52;15.30;99.90
27540;DHT22;15906;52.046;4.724;2022-09-09T02:55:30;15.30;99.90
27540;DHT22;15906;52.046;4.724;2022-09-09T02:57:58;15.30;99.90
27540;DHT22;15906;52.046;4.724;2022-09-09T03:00:26;15.30;99.90
27540;DHT22;15906;52.046;4.724;2022-09-09T03:02:53;15.30;99.90
27540;DHT22;15906;52.046;4.724;2022-09-09T03:05:20;15.20;99.90
27540;DHT22;15906;52.046;4.724;2022-09-09T03:07:46;15.20;99.90
27540;DHT22;15906;52.046;4.724;2022-09-09T03:10:11;15.30;99.90
27540;DHT22;15906;52.046;4.724;2022-09-09T03:12:37;15.20;99.90
27540;DHT22;15906;52.046;4.724;2022-09-09T03:15:04;15.20;99.90
27540;DHT22;15906;52.046;4.724;2022-09-09T03:17:29;15.20;99.90
27540;DHT22;15906;52.046;4.724;2022-09-09T03:19:55;15.20;99.90
27540;DHT22;15906;52.046;4.724;2022-09-09T03:22:23;15.20;99.90
27540;DHT22;15906;52.046;4.724;2022-09-09T03:24:48;15.20;99.90
27540;DHT22;15906;52.046;4.724;2022-09-09T03:27:13;15.10;99.90
27540;DHT22;15906;52.046;4.724;2022-09-09T03:29:42;15.20;99.90
27540;DHT22;15906;52.046;4.724;2022-09-09T03:32:08;15.10;99.90
27540;DHT22;15906;52.046;4.724;2022-09-09T03:34:35;15.20;99.90
27540;DHT22;15906;52.046;4.724;2022-09-09T03:37:02;15.20;99.90
27540;DHT22;15906;52.046;4.724;2022-09-09T03:39:27;15.10;99.90
27540;DHT22;15906;52.046;4.724;2022-09-09T03:41:54;15.10;99.90
27540;DHT22;15906;52.046;4.724;2022-09-09T03:44:19;15.10;99.90
27540;DHT22;15906;52.046;4.724;2022-09-09T03:46:45;15.00;99.90
27540;DHT22;15906;52.046;4.724;2022-09-09T03:49:11;14.90;99.90
27540;DHT22;15906;52.046;4.724;2022-09-09T03:51:36;14.90;99.90
27540;DHT22;15906;52.046;4.724;2022-09-09T03:54:02;14.90;99.90
27540;DHT22;15906;52.046;4.724;2022-09-09T03:56:30;14.90;99.90
27540;DHT22;15906;52.046;4.724;2022-09-09T03:58:57;14.80;99.90
27540;DHT22;15906;52.046;4.724;2022-09-09T04:01:22;14.80;99.90
27540;DHT22;15906;52.046;4.724;2022-09-09T04:03:48;14.80;99.90
27540;DHT22;15906;52.046;4.724;2022-09-09T04:06:14;14.80;99.90
27540;DHT22;15906;52.046;4.724;2022-09-09T04:08:40;14.80;99.90
27540;DHT22;15906;52.046;4.724;2022-09-09T04:11:07;14.80;99.90
27540;DHT22;15906;52.046;4.724;2022-09-09T04:13:37;14.70;99.90
27540;DHT22;15906;52.046;4.724;2022-09-09T04:16:04;14.60;99.90
27540;DHT22;15906;52.046;4.724;2022-09-09T04:18:30;14.60;99.90
27540;DHT22;15906;52.046;4.724;2022-09-09T04:20:56;14.70;99.90
27540;DHT22;15906;52.046;4.724;2022-09-09T04:23:23;14.70;99.90
27540;DHT22;15906;52.046;4.724;2022-09-09T04:25:53;14.70;99.90
27540;DHT22;15906;52.046;4.724;2022-09-09T04:28:20;14.70;99.90
27540;DHT22;15906;52.046;4.724;2022-09-09T04:30:46;14.80;99.90
27540;DHT22;15906;52.046;4.724;2022-09-09T04:33:12;14.80;99.90
27540;DHT22;15906;52.046;4.724;2022-09-09T04:35:38;14.70;99.90
27540;DHT22;15906;52.046;4.724;2022-09-09T04:38:05;14.80;99.90
27540;DHT22;15906;52.046;4.724;2022-09-09T04:40:32;14.80;99.90
27540;DHT22;15906;52.046;4.724;2022-09-09T04:42:59;14.80;99.90
27540;DHT22;15906;52.046;4.724;2022-09-09T04:45:24;14.80;99.90
27540;DHT22;15906;52.046;4.724;2022-09-09T04:47:51;14.80;99.90
27540;DHT22;15906;52.046;4.724;2022-09-09T04:50:17;14.80;99.90
27540;DHT22;15906;52.046;4.724;2022-09-09T04:52:44;14.70;99.90
27540;DHT22;15906;52.046;4.724;2022-09-09T04:55:09;14.70;99.90
27540;DHT22;15906;52.046;4.724;2022-09-09T04:57:35;14.70;99.90
27540;DHT22;15906;52.046;4.724;2022-09-09T05:00:00;14.70;99.90
27540;DHT22;15906;52.046;4.724;2022-09-09T05:02:27;14.80;99.90
27540;DHT22;15906;52.046;4.724;2022-09-09T05:04:53;14.70;99.90
27540;DHT22;15906;52.046;4.724;2022-09-09T05:07:19;14.70;99.90
27540;DHT22;15906;52.046;4.724;2022-09-09T05:09:44;14.70;99.90
27540;DHT22;15906;52.046;4.724;2022-09-09T05:12:10;14.70;99.90
27540;DHT22;15906;52.046;4.724;2022-09-09T05:14:36;14.70;99.90
27540;DHT22;15906;52.046;4.724;2022-09-09T05:17:03;14.80;99.90
27540;DHT22;15906;52.046;4.724;2022-09-09T05:19:28;14.80;99.90
27540;DHT22;15906;52.046;4.724;2022-09-09T05:21:54;14.80;99.90
27540;DHT22;15906;52.046;4.724;2022-09-09T05:24:20;14.80;99.90
27540;DHT22;15906;52.046;4.724;2022-09-09T05:26:48;14.80;99.90
27540;DHT22;15906;52.046;4.724;2022-09-09T05:29:13;14.90;99.90
27540;DHT22;15906;52.046;4.724;2022-09-09T05:31:39;14.90;99.90
27540;DHT22;15906;52.046;4.724;2022-09-09T05:34:04;14.90;99.90
27540;DHT22;15906;52.046;4.724;2022-09-09T05:36:30;14.90;99.90
27540;DHT22;15906;52.046;4.724;2022-09-09T05:38:56;15.00;99.90
27540;DHT22;15906;52.046;4.724;2022-09-09T05:41:22;15.00;99.90
27540;DHT22;15906;52.046;4.724;2022-09-09T05:43:48;15.00;99.90
27540;DHT22;15906;52.046;4.724;2022-09-09T05:46:24;15.00;99.90
27540;DHT22;15906;52.046;4.724;2022-09-09T05:48:50;15.00;99.90
27540;DHT22;15906;52.046;4.724;2022-09-09T05:51:25;15.00;99.90
27540;DHT22;15906;52.046;4.724;2022-09-09T05:53:51;15.00;99.90
27540;DHT22;15906;52.046;4.724;2022-09-09T05:56:20;15.10;99.90
27540;DHT22;15906;52.046;4.724;2022-09-09T05:58:47;15.10;99.90
27540;DHT22;15906;52.046;4.724;2022-09-09T06:01:20;15.20;99.90
27540;DHT22;15906;52.046;4.724;2022-09-09T06:03:48;15.20;99.90
27540;DHT22;15906;52.046;4.724;2022-09-09T06:06:19;15.30;99.90
27540;DHT22;15906;52.046;4.724;2022-09-09T06:08:51;15.40;99.90
27540;DHT22;15906;52.046;4.724;2022-09-09T06:11:18;15.40;99.90
27540;DHT22;15906;52.046;4.724;2022-09-09T06:13:44;15.50;99.90
27540;DHT22;15906;52.046;4.724;2022-09-09T06:16:11;15.50;99.90
27540;DHT22;15906;52.046;4.724;2022-09-09T06:18:38;15.60;99.90
27540;DHT22;15906;52.046;4.724;2022-09-09T06:21:06;15.70;99.90
27540;DHT22;15906;52.046;4.724;2022-09-09T06:23:33;15.70;99.90
27540;DHT22;15906;52.046;4.724;2022-09-09T06:26:13;15.70;99.90
27540;DHT22;15906;52.046;4.724;2022-09-09T06:28:39;15.70;99.90
27540;DHT22;15906;52.046;4.724;2022-09-09T06:31:07;15.70;99.90
27540;DHT22;15906;52.046;4.724;2022-09-09T06:33:35;15.70;99.90
27540;DHT22;15906;52.046;4.724;2022-09-09T06:36:02;15.70;99.90
27540;DHT22;15906;52.046;4.724;2022-09-09T06:38:29;15.80;99.90
27540;DHT22;15906;52.046;4.724;2022-09-09T06:40:55;15.70;99.90
27540;DHT22;15906;52.046;4.724;2022-09-09T06:43:22;15.70;99.90
27540;DHT22;15906;52.046;4.724;2022-09-09T06:45:59;15.80;99.90
27540;DHT22;15906;52.046;4.724;2022-09-09T06:48:26;15.80;99.90
27540;DHT22;15906;52.046;4.724;2022-09-09T06:51:18;15.90;99.90
27540;DHT22;15906;52.046;4.724;2022-09-09T06:53:45;15.90;99.90
27540;DHT22;15906;52.046;4.724;2022-09-09T06:58:37;16.00;99.90
27540;DHT22;15906;52.046;4.724;2022-09-09T07:01:06;16.00;99.90
27540;DHT22;15906;52.046;4.724;2022-09-09T07:03:32;16.00;99.90
27540;DHT22;15906;52.046;4.724;2022-09-09T07:05:58;16.00;99.90
27540;DHT22;15906;52.046;4.724;2022-09-09T07:08:24;16.10;99.90
27540;DHT22;15906;52.046;4.724;2022-09-09T07:10:51;16.10;99.90
27540;DHT22;15906;52.046;4.724;2022-09-09T07:13:25;16.10;99.90
27540;DHT22;15906;52.046;4.724;2022-09-09T07:15:51;16.00;99.90
27540;DHT22;15906;52.046;4.724;2022-09-09T07:18:18;16.20;99.90
27540;DHT22;15906;52.046;4.724;2022-09-09T07:20:52;16.20;99.90
27540;DHT22;15906;52.046;4.724;2022-09-09T07:23:18;16.30;99.90
27540;DHT22;15906;52.046;4.724;2022-09-09T07:25:45;16.30;99.90
27540;DHT22;15906;52.046;4.724;2022-09-09T07:28:10;16.40;99.90
27540;DHT22;15906;52.046;4.724;2022-09-09T07:30:36;16.30;99.90
27540;DHT22;15906;52.046;4.724;2022-09-09T07:33:01;16.30;99.90
27540;DHT22;15906;52.046;4.724;2022-09-09T07:35:28;16.40;99.90
27540;DHT22;15906;52.046;4.724;2022-09-09T07:37:54;16.50;99.90
27540;DHT22;15906;52.046;4.724;2022-09-09T07:40:20;16.50;99.90
27540;DHT22;15906;52.046;4.724;2022-09-09T07:42:47;16.60;99.90
27540;DHT22;15906;52.046;4.724;2022-09-09T07:45:13;16.70;99.90
27540;DHT22;15906;52.046;4.724;2022-09-09T07:47:39;16.70;99.90
27540;DHT22;15906;52.046;4.724;2022-09-09T07:50:06;16.70;99.90
27540;DHT22;15906;52.046;4.724;2022-09-09T07:52:33;16.70;99.90
27540;DHT22;15906;52.046;4.724;2022-09-09T07:54:59;16.80;99.90
27540;DHT22;15906;52.046;4.724;2022-09-09T07:57:25;16.80;99.90
27540;DHT22;15906;52.046;4.724;2022-09-09T07:59:50;16.80;99.90
27540;DHT22;15906;52.046;4.724;2022-09-09T08:02:17;16.80;99.90
27540;DHT22;15906;52.046;4.724;2022-09-09T08:04:42;16.70;99.90
27540;DHT22;15906;52.046;4.724;2022-09-09T08:07:07;16.70;99.90
27540;DHT22;15906;52.046;4.724;2022-09-09T08:09:33;16.70;99.90
27540;DHT22;15906;52.046;4.724;2022-09-09T08:11:59;16.70;99.90
27540;DHT22;15906;52.046;4.724;2022-09-09T08:14:25;16.60;99.90
27540;DHT22;15906;52.046;4.724;2022-09-09T08:16:51;16.60;99.90
27540;DHT22;15906;52.046;4.724;2022-09-09T08:19:18;16.60;99.90
27540;DHT22;15906;52.046;4.724;2022-09-09T08:21:45;16.70;99.90
27540;DHT22;15906;52.046;4.724;2022-09-09T08:24:11;16.70;99.90
27540;DHT22;15906;52.046;4.724;2022-09-09T08:26:39;16.70;99.90
27540;DHT22;15906;52.046;4.724;2022-09-09T08:29:08;16.60;99.90
27540;DHT22;15906;52.046;4.724;2022-09-09T08:31:37;16.50;99.90
27540;DHT22;15906;52.046;4.724;2022-09-09T08:34:04;16.60;99.90
27540;DHT22;15906;52.046;4.724;2022-09-09T08:36:33;16.70;99.90
27540;DHT22;15906;52.046;4.724;2022-09-09T08:39:00;16.70;99.90
27540;DHT22;15906;52.046;4.724;2022-09-09T08:50:16;16.70;99.90
27540;DHT22;15906;52.046;4.724;2022-09-09T08:57:55;16.70;99.90
27540;DHT22;15906;52.046;4.724;2022-09-09T09:00:21;16.80;99.90
27540;DHT22;15906;52.046;4.724;2022-09-09T09:02:57;16.80;99.90
27540;DHT22;15906;52.046;4.724;2022-09-09T09:05:45;16.70;99.90
27540;DHT22;15906;52.046;4.724;2022-09-09T09:08:44;16.80;99.90
27540;DHT22;15906;52.046;4.724;2022-09-09T09:11:12;16.80;99.90
27540;DHT22;15906;52.046;4.724;2022-09-09T09:13:50;16.70;99.90
27540;DHT22;15906;52.046;4.724;2022-09-09T09:16:29;16.60;99.90
27540;DHT22;15906;52.046;4.724;2022-09-09T09:18:58;16.60;99.90
27540;DHT22;15906;52.046;4.724;2022-09-09T09:21:36;16.50;99.90
27540;DHT22;15906;52.046;4.724;2022-09-09T09:24:12;16.50;99.90
27540;DHT22;15906;52.046;4.724;2022-09-09T09:26:43;16.50;99.90
27540;DHT22;15906;52.046;4.724;2022-09-09T09:29:14;16.50;99.90
27540;DHT22;15906;52.046;4.724;2022-09-09T09:31:48;16.50;99.90
27540;DHT22;15906;52.046;4.724;2022-09-09T09:34:16;16.50;99.90
27540;DHT22;15906;52.046;4.724;2022-09-09T09:37:01;16.60;99.90
27540;DHT22;15906;52.046;4.724;2022-09-09T09:39:33;16.60;99.90
27540;DHT22;15906;52.046;4.724;2022-09-09T09:42:11;16.60;99.90
27540;DHT22;15906;52.046;4.724;2022-09-09T09:44:40;16.60;99.90
27540;DHT22;15906;52.046;4.724;2022-09-09T09:47:21;16.70;99.90
27540;DHT22;15906;52.046;4.724;2022-09-09T09:50:00;16.50;99.90
27540;DHT22;15906;52.046;4.724;2022-09-09T09:52:28;16.60;99.90
27540;DHT22;15906;52.046;4.724;2022-09-09T09:54:56;16.50;99.90
27540;DHT22;15906;52.046;4.724;2022-09-09T09:57:31;16.60;99.90
27540;DHT22;15906;52.046;4.724;2022-09-09T10:00:04;16.60;99.90
27540;DHT22;15906;52.046;4.724;2022-09-09T10:02:40;16.60;99.90
27540;DHT22;15906;52.046;4.724;2022-09-09T10:05:25;16.70;99.90
27540;DHT22;15906;52.046;4.724;2022-09-09T10:08:09;16.80;99.90
27540;DHT22;15906;52.046;4.724;2022-09-09T10:15:58;17.20;99.90
27540;DHT22;15906;52.046;4.724;2022-09-09T10:21:32;17.30;99.90
27540;DHT22;15906;52.046;4.724;2022-09-09T10:29:40;17.20;99.90
27540;DHT22;15906;52.046;4.724;2022-09-09T10:32:29;17.30;99.90
27540;DHT22;15906;52.046;4.724;2022-09-09T10:37:53;17.30;99.90
27540;DHT22;15906;52.046;4.724;2022-09-09T10:40:35;17.30;99.90
27540;DHT22;15906;52.046;4.724;2022-09-09T10:48:53;17.40;99.90
27540;DHT22;15906;52.046;4.724;2022-09-09T10:51:33;17.40;99.90
27540;DHT22;15906;52.046;4.724;2022-09-09T10:56:58;17.40;99.90
27540;DHT22;15906;52.046;4.724;2022-09-09T10:59:31;17.30;99.90
27540;DHT22;15906;52.046;4.724;2022-09-09T11:02:18;17.20;99.90
27540;DHT22;15906;52.046;4.724;2022-09-09T11:04:55;17.30;99.90
27540;DHT22;15906;52.046;4.724;2022-09-09T11:13:07;17.30;99.90
27540;DHT22;15906;52.046;4.724;2022-09-09T11:15:44;17.30;99.90
27540;DHT22;15906;52.046;4.724;2022-09-09T11:18:18;17.40;99.90
27540;DHT22;15906;52.046;4.724;2022-09-09T11:20:46;17.50;99.90
27540;DHT22;15906;52.046;4.724;2022-09-09T11:23:17;17.60;99.90
27540;DHT22;15906;52.046;4.724;2022-09-09T11:25:48;17.70;99.90
27540;DHT22;15906;52.046;4.724;2022-09-09T11:41:53;18.20;99.90
27540;DHT22;15906;52.046;4.724;2022-09-09T11:44:30;18.00;99.90
27540;DHT22;15906;52.046;4.724;2022-09-09T11:46:56;18.00;99.90
27540;DHT22;15906;52.046;4.724;2022-09-09T11:49:29;18.00;99.90
27540;DHT22;15906;52.046;4.724;2022-09-09T11:54:49;18.20;99.90
27540;DHT22;15906;52.046;4.724;2022-09-09T11:57:41;18.20;99.90
27540;DHT22;15906;52.046;4.724;2022-09-09T12:00:32;18.00;99.90
27540;DHT22;15906;52.046;4.724;2022-09-09T12:02:59;17.90;99.90
27540;DHT22;15906;52.046;4.724;2022-09-09T12:05:39;17.90;99.90
27540;DHT22;15906;52.046;4.724;2022-09-09T12:08:07;17.70;99.90
27540;DHT22;15906;52.046;4.724;2022-09-09T12:10:40;17.50;99.90
27540;DHT22;15906;52.046;4.724;2022-09-09T12:13:22;17.50;99.90
27540;DHT22;15906;52.046;4.724;2022-09-09T12:15:50;17.40;99.90
27540;DHT22;15906;52.046;4.724;2022-09-09T12:18:41;17.40;99.90
27540;DHT22;15906;52.046;4.724;2022-09-09T12:24:10;17.30;99.90
27540;DHT22;15906;52.046;4.724;2022-09-09T12:26:46;17.20;99.90
27540;DHT22;15906;52.046;4.724;2022-09-09T12:29:22;17.10;99.90
27540;DHT22;15906;52.046;4.724;2022-09-09T12:32:00;17.20;99.90
27540;DHT22;15906;52.046;4.724;2022-09-09T12:37:32;17.20;99.90
27540;DHT22;15906;52.046;4.724;2022-09-09T12:40:00;17.10;99.90
27540;DHT22;15906;52.046;4.724;2022-09-09T12:42:27;17.10;99.90
27540;DHT22;15906;52.046;4.724;2022-09-09T12:44:58;16.90;99.90
27540;DHT22;15906;52.046;4.724;2022-09-09T12:49:56;17.10;99.90
27540;DHT22;15906;52.046;4.724;2022-09-09T12:52:31;16.90;99.90
27540;DHT22;15906;52.046;4.724;2022-09-09T12:55:00;16.90;99.90
27540;DHT22;15906;52.046;4.724;2022-09-09T13:00:25;17.00;99.90
27540;DHT22;15906;52.046;4.724;2022-09-09T13:03:02;16.90;99.90
27540;DHT22;15906;52.046;4.724;2022-09-09T13:05:35;16.90;99.90
27540;DHT22;15906;52.046;4.724;2022-09-09T13:08:05;16.80;99.90
27540;DHT22;15906;52.046;4.724;2022-09-09T13:10:37;16.90;99.90
27540;DHT22;15906;52.046;4.724;2022-09-09T13:13:12;16.90;99.90
27540;DHT22;15906;52.046;4.724;2022-09-09T13:15:39;16.90;99.90
27540;DHT22;15906;52.046;4.724;2022-09-09T13:18:10;16.90;99.90
27540;DHT22;15906;52.046;4.724;2022-09-09T13:20:36;16.90;99.90
27540;DHT22;15906;52.046;4.724;2022-09-09T13:23:02;16.80;99.90
27540;DHT22;15906;52.046;4.724;2022-09-09T13:25:29;16.80;99.90
27540;DHT22;15906;52.046;4.724;2022-09-09T13:28:03;16.80;99.90
27540;DHT22;15906;52.046;4.724;2022-09-09T13:30:34;16.90;99.90
27540;DHT22;15906;52.046;4.724;2022-09-09T13:33:20;16.90;99.90
27540;DHT22;15906;52.046;4.724;2022-09-09T13:35:53;16.90;99.90
27540;DHT22;15906;52.046;4.724;2022-09-09T13:38:19;16.80;99.90
27540;DHT22;15906;52.046;4.724;2022-09-09T13:41:04;16.90;99.90
27540;DHT22;15906;52.046;4.724;2022-09-09T13:43:34;17.00;99.90
27540;DHT22;15906;52.046;4.724;2022-09-09T13:46:03;17.00;99.90
27540;DHT22;15906;52.046;4.724;2022-09-09T13:48:29;17.20;99.90
27540;DHT22;15906;52.046;4.724;2022-09-09T13:51:02;17.60;99.90
27540;DHT22;15906;52.046;4.724;2022-09-09T13:53:29;17.80;99.90
27540;DHT22;15906;52.046;4.724;2022-09-09T13:55:56;17.80;99.90
27540;DHT22;15906;52.046;4.724;2022-09-09T13:58:22;17.90;99.90
27540;DHT22;15906;52.046;4.724;2022-09-09T14:00:48;17.90;99.90
27540;DHT22;15906;52.046;4.724;2022-09-09T14:03:15;17.90;99.90
27540;DHT22;15906;52.046;4.724;2022-09-09T14:05:40;17.90;99.90
27540;DHT22;15906;52.046;4.724;2022-09-09T14:08:10;17.80;99.90
27540;DHT22;15906;52.046;4.724;2022-09-09T14:10:40;17.90;99.90
27540;DHT22;15906;52.046;4.724;2022-09-09T14:13:05;18.00;99.90
27540;DHT22;15906;52.046;4.724;2022-09-09T14:15:31;17.80;99.90
27540;DHT22;15906;52.046;4.724;2022-09-09T14:17:56;17.70;99.90
27540;DHT22;15906;52.046;4.724;2022-09-09T14:20:24;17.50;99.90
27540;DHT22;15906;52.046;4.724;2022-09-09T14:22:49;17.40;99.90
27540;DHT22;15906;52.046;4.724;2022-09-09T14:25:15;17.40;99.90
27540;DHT22;15906;52.046;4.724;2022-09-09T14:27:40;17.30;99.90
27540;DHT22;15906;52.046;4.724;2022-09-09T14:30:08;17.20;99.90
27540;DHT22;15906;52.046;4.724;2022-09-09T14:32:33;17.00;99.90
27540;DHT22;15906;52.046;4.724;2022-09-09T14:34:59;17.00;99.90
27540;DHT22;15906;52.046;4.724;2022-09-09T14:37:25;17.00;99.90
27540;DHT22;15906;52.046;4.724;2022-09-09T14:39:50;17.00;99.90
27540;DHT22;15906;52.046;4.724;2022-09-09T14:42:17;17.10;99.90
27540;DHT22;15906;52.046;4.724;2022-09-09T14:44:42;17.10;99.90
27540;DHT22;15906;52.046;4.724;2022-09-09T14:47:08;17.10;99.90
27540;DHT22;15906;52.046;4.724;2022-09-09T14:49:34;17.00;99.90
27540;DHT22;15906;52.046;4.724;2022-09-09T14:52:00;17.10;99.90
27540;DHT22;15906;52.046;4.724;2022-09-09T14:54:26;17.10;99.90
27540;DHT22;15906;52.046;4.724;2022-09-09T14:56:51;17.10;99.90
27540;DHT22;15906;52.046;4.724;2022-09-09T14:59:17;17.30;99.90
27540;DHT22;15906;52.046;4.724;2022-09-09T15:01:42;17.20;99.90
27540;DHT22;15906;52.046;4.724;2022-09-09T15:04:11;17.30;99.90
27540;DHT22;15906;52.046;4.724;2022-09-09T15:06:37;17.40;99.90
27540;DHT22;15906;52.046;4.724;2022-09-09T15:09:04;17.50;99.90
27540;DHT22;15906;52.046;4.724;2022-09-09T15:11:33;17.60;99.90
27540;DHT22;15906;52.046;4.724;2022-09-09T15:14:03;17.80;99.90
27540;DHT22;15906;52.046;4.724;2022-09-09T15:16:29;17.80;99.90
27540;DHT22;15906;52.046;4.724;2022-09-09T15:18:56;17.90;99.90
27540;DHT22;15906;52.046;4.724;2022-09-09T15:21:28;18.10;99.90
27540;DHT22;15906;52.046;4.724;2022-09-09T15:23:55;18.20;99.90
27540;DHT22;15906;52.046;4.724;2022-09-09T15:26:21;18.30;99.90
27540;DHT22;15906;52.046;4.724;2022-09-09T15:28:47;18.20;99.90
27540;DHT22;15906;52.046;4.724;2022-09-09T15:31:26;18.20;99.90
27540;DHT22;15906;52.046;4.724;2022-09-09T15:33:55;18.30;99.90
27540;DHT22;15906;52.046;4.724;2022-09-09T15:36:40;18.40;99.90
27540;DHT22;15906;52.046;4.724;2022-09-09T15:39:08;18.20;99.90
27540;DHT22;15906;52.046;4.724;2022-09-09T15:41:37;18.30;99.90
27540;DHT22;15906;52.046;4.724;2022-09-09T15:44:03;18.10;99.90
27540;DHT22;15906;52.046;4.724;2022-09-09T15:46:31;18.20;99.90
27540;DHT22;15906;52.046;4.724;2022-09-09T15:49:08;18.30;99.90
27540;DHT22;15906;52.046;4.724;2022-09-09T15:51:35;18.30;99.90
27540;DHT22;15906;52.046;4.724;2022-09-09T15:54:00;18.30;99.90
27540;DHT22;15906;52.046;4.724;2022-09-09T15:56:27;18.20;99.90
27540;DHT22;15906;52.046;4.724;2022-09-09T15:58:55;18.30;99.90
27540;DHT22;15906;52.046;4.724;2022-09-09T16:01:20;18.10;99.90
27540;DHT22;15906;52.046;4.724;2022-09-09T16:03:46;18.00;99.90
27540;DHT22;15906;52.046;4.724;2022-09-09T16:06:14;17.80;99.90
27540;DHT22;15906;52.046;4.724;2022-09-09T16:08:42;17.90;99.90
27540;DHT22;15906;52.046;4.724;2022-09-09T16:11:16;18.00;99.90
27540;DHT22;15906;52.046;4.724;2022-09-09T16:13:45;18.00;99.90
27540;DHT22;15906;52.046;4.724;2022-09-09T16:16:13;18.00;99.90
27540;DHT22;15906;52.046;4.724;2022-09-09T16:18:43;18.00;99.90
27540;DHT22;15906;52.046;4.724;2022-09-09T16:21:18;18.10;99.90
27540;DHT22;15906;52.046;4.724;2022-09-09T16:23:44;18.10;99.90
27540;DHT22;15906;52.046;4.724;2022-09-09T16:26:14;18.10;99.90
27540;DHT22;15906;52.046;4.724;2022-09-09T16:28:41;18.10;99.90
27540;DHT22;15906;52.046;4.724;2022-09-09T16:31:08;18.00;99.90
27540;DHT22;15906;52.046;4.724;2022-09-09T16:33:35;18.00;99.90
27540;DHT22;15906;52.046;4.724;2022-09-09T16:36:09;18.00;99.90
27540;DHT22;15906;52.046;4.724;2022-09-09T16:38:36;17.90;99.90
27540;DHT22;15906;52.046;4.724;2022-09-09T16:41:03;17.70;99.90
27540;DHT22;15906;52.046;4.724;2022-09-09T16:43:30;17.60;99.90
27540;DHT22;15906;52.046;4.724;2022-09-09T16:45:55;17.70;99.90
27540;DHT22;15906;52.046;4.724;2022-09-09T16:48:21;17.80;99.90
27540;DHT22;15906;52.046;4.724;2022-09-09T16:50:46;17.90;99.90
27540;DHT22;15906;52.046;4.724;2022-09-09T16:53:12;18.00;99.90
27540;DHT22;15906;52.046;4.724;2022-09-09T16:55:40;18.00;99.90
27540;DHT22;15906;52.046;4.724;2022-09-09T16:58:15;18.00;99.90
27540;DHT22;15906;52.046;4.724;2022-09-09T17:00:40;18.10;99.90
27540;DHT22;15906;52.046;4.724;2022-09-09T17:03:06;18.00;99.90
27540;DHT22;15906;52.046;4.724;2022-09-09T17:05:31;18.10;99.90
27540;DHT22;15906;52.046;4.724;2022-09-09T17:07:57;18.10;99.90
27540;DHT22;15906;52.046;4.724;2022-09-09T17:10:24;18.10;99.90
27540;DHT22;15906;52.046;4.724;2022-09-09T17:12:50;18.00;99.90
27540;DHT22;15906;52.046;4.724;2022-09-09T17:15:16;17.90;99.90
27540;DHT22;15906;52.046;4.724;2022-09-09T17:17:43;17.80;99.90
27540;DHT22;15906;52.046;4.724;2022-09-09T17:20:10;17.70;99.90
27540;DHT22;15906;52.046;4.724;2022-09-09T17:22:36;17.70;99.90
27540;DHT22;15906;52.046;4.724;2022-09-09T17:25:02;17.60;99.90
27540;DHT22;15906;52.046;4.724;2022-09-09T17:27:28;17.60;99.90
27540;DHT22;15906;52.046;4.724;2022-09-09T17:29:56;17.40;99.90
27540;DHT22;15906;52.046;4.724;2022-09-09T17:32:22;17.40;99.90